Capitol Logistics 223


KSEA
Seattle-Tacoma International Airport
Seattle, Washington, US
KRIV
March Air Reserve Base
Riverside, California, US

Activity Log

Date Flight Route Aircraft Duration
No Flights Yet

Route Details

Aircraft Information
Primary: Boeing 767-300BDSF
Backup: Not Available
Route Data
Distance: 833nm
Sched. Duration: 2h 10m
Avg. Duration: 0h 00m (-211m)
Times Flown: 0
Recm'd Route: SUMMA1 SUMMA JINMO Q7 JAGWA LANDO PMD MARCH4
Planned Altitude: 35,000ft
Origin Wx: KSEA 170753Z 14006KT 10SM OVC055 07/05 A3033 RMK AO2 RAE18 SLP281 P0000 T00670050 400830033
Dest. Wx: KRIV 170758Z AUTO 00000KT 10SM CLR 14/M03 A3005 RMK AO2 SLP165 T01391034 402970033
Notes:

Financial History
Total Freight: 0lbs
Average Load: 0lbs/flt
Fuel Used: 0lbs
Avg. Fuel Used: 0lbs/flt
Fuel Expense: $0
Avg. Fuel Expense: $0
Avg. Fuel Cost: $0/lbs
Total Gross Income: $0
Pilot Pay: $0
Total Expenses: $0
Total Revenue: $0
Average Revenue: $0